sensor_id;sensor_type;location;lat;lon;timestamp;pressure;altitude;pressure_sealevel;temperature;humidity
39729;BME280;25402;42.004;23.088;2023-06-26T00:00:30;97111.34;;;16.02;57.37
39729;BME280;25402;42.004;23.088;2023-06-26T00:02:58;97115.34;;;16.00;57.31
39729;BME280;25402;42.004;23.088;2023-06-26T00:05:25;97116.19;;;16.00;57.01
39729;BME280;25402;42.004;23.088;2023-06-26T00:07:53;97116.88;;;15.95;56.54
39729;BME280;25402;42.004;23.088;2023-06-26T00:10:23;97109.47;;;15.84;56.72
39729;BME280;25402;42.004;23.088;2023-06-26T00:12:50;97107.88;;;15.58;57.17
39729;BME280;25402;42.004;23.088;2023-06-26T00:15:17;97118.63;;;15.72;57.30
39729;BME280;25402;42.004;23.088;2023-06-26T00:17:44;97092.28;;;15.66;56.75
39729;BME280;25402;42.004;23.088;2023-06-26T00:20:11;97105.53;;;15.80;56.77
39729;BME280;25402;42.004;23.088;2023-06-26T00:22:40;97100.53;;;15.77;56.69
39729;BME280;25402;42.004;23.088;2023-06-26T00:25:07;97105.75;;;15.79;56.42
39729;BME280;25402;42.004;23.088;2023-06-26T00:27:35;97090.16;;;15.68;56.97
39729;BME280;25402;42.004;23.088;2023-06-26T00:30:03;97091.16;;;15.73;56.51
39729;BME280;25402;42.004;23.088;2023-06-26T00:32:30;97110.69;;;15.88;56.33
39729;BME280;25402;42.004;23.088;2023-06-26T00:34:57;97106.63;;;15.91;56.32
39729;BME280;25402;42.004;23.088;2023-06-26T00:37:24;97111.88;;;15.92;56.26
39729;BME280;25402;42.004;23.088;2023-06-26T00:39:51;97114.59;;;15.92;56.35
39729;BME280;25402;42.004;23.088;2023-06-26T00:42:18;97113.75;;;15.92;56.29
39729;BME280;25402;42.004;23.088;2023-06-26T00:44:46;97112.94;;;15.91;56.38
39729;BME280;25402;42.004;23.088;2023-06-26T00:47:15;97111.25;;;15.90;56.28
39729;BME280;25402;42.004;23.088;2023-06-26T00:49:43;97110.53;;;15.83;56.42
39729;BME280;25402;42.004;23.088;2023-06-26T00:52:10;97104.25;;;15.83;56.49
39729;BME280;25402;42.004;23.088;2023-06-26T00:54:37;97093.91;;;15.73;56.53
39729;BME280;25402;42.004;23.088;2023-06-26T00:57:04;97112.66;;;15.81;57.13
39729;BME280;25402;42.004;23.088;2023-06-26T00:59:31;97096.81;;;15.72;57.75
39729;BME280;25402;42.004;23.088;2023-06-26T01:01:59;97113.50;;;15.82;57.74
39729;BME280;25402;42.004;23.088;2023-06-26T01:04:26;97098.09;;;15.69;58.35
39729;BME280;25402;42.004;23.088;2023-06-26T01:06:59;97099.94;;;15.75;58.00
39729;BME280;25402;42.004;23.088;2023-06-26T01:09:26;97102.94;;;15.67;58.15
39729;BME280;25402;42.004;23.088;2023-06-26T01:11:54;97094.50;;;15.57;58.61
39729;BME280;25402;42.004;23.088;2023-06-26T01:14:21;97071.63;;;15.40;58.87
39729;BME280;25402;42.004;23.088;2023-06-26T01:16:49;97079.50;;;15.48;58.58
39729;BME280;25402;42.004;23.088;2023-06-26T01:19:23;97100.53;;;15.59;58.59
39729;BME280;25402;42.004;23.088;2023-06-26T01:21:56;97089.50;;;15.54;58.62
39729;BME280;25402;42.004;23.088;2023-06-26T01:24:25;97084.94;;;15.48;58.29
39729;BME280;25402;42.004;23.088;2023-06-26T01:27:00;97102.78;;;15.62;58.05
39729;BME280;25402;42.004;23.088;2023-06-26T01:29:30;97098.41;;;15.61;57.74
39729;BME280;25402;42.004;23.088;2023-06-26T01:31:59;97096.50;;;15.61;57.49
39729;BME280;25402;42.004;23.088;2023-06-26T01:34:27;97095.31;;;15.57;57.49
39729;BME280;25402;42.004;23.088;2023-06-26T01:36:54;97100.69;;;15.64;57.29
39729;BME280;25402;42.004;23.088;2023-06-26T01:39:20;97090.59;;;15.64;56.93
39729;BME280;25402;42.004;23.088;2023-06-26T01:41:48;97088.09;;;15.63;56.86
39729;BME280;25402;42.004;23.088;2023-06-26T01:44:25;97085.84;;;15.60;56.97
39729;BME280;25402;42.004;23.088;2023-06-26T01:46:58;97079.50;;;15.48;57.46
39729;BME280;25402;42.004;23.088;2023-06-26T01:49:39;97073.53;;;15.39;57.98
39729;BME280;25402;42.004;23.088;2023-06-26T01:52:17;97072.09;;;15.37;57.93
39729;BME280;25402;42.004;23.088;2023-06-26T01:54:52;97070.88;;;15.33;57.73
39729;BME280;25402;42.004;23.088;2023-06-26T01:57:19;97082.81;;;15.50;57.61
39729;BME280;25402;42.004;23.088;2023-06-26T01:59:51;97073.75;;;15.38;57.71
39729;BME280;25402;42.004;23.088;2023-06-26T02:02:19;97077.53;;;15.37;57.88
39729;BME280;25402;42.004;23.088;2023-06-26T02:04:46;97065.41;;;15.33;57.82
39729;BME280;25402;42.004;23.088;2023-06-26T02:07:14;97067.53;;;15.31;57.83
39729;BME280;25402;42.004;23.088;2023-06-26T02:09:41;97075.50;;;15.32;57.83
39729;BME280;25402;42.004;23.088;2023-06-26T02:12:09;97073.22;;;15.29;57.62
39729;BME280;25402;42.004;23.088;2023-06-26T02:14:36;97087.53;;;15.24;57.75
39729;BME280;25402;42.004;23.088;2023-06-26T02:17:04;97054.28;;;15.16;57.64
39729;BME280;25402;42.004;23.088;2023-06-26T02:19:34;97063.53;;;15.15;57.67
39729;BME280;25402;42.004;23.088;2023-06-26T02:22:01;97058.41;;;15.25;57.73
39729;BME280;25402;42.004;23.088;2023-06-26T02:24:28;97058.41;;;15.25;57.75
39729;BME280;25402;42.004;23.088;2023-06-26T02:26:55;97063.84;;;15.25;57.74
39729;BME280;25402;42.004;23.088;2023-06-26T02:29:23;97052.13;;;15.24;57.55
39729;BME280;25402;42.004;23.088;2023-06-26T02:31:50;97055.53;;;15.20;57.79
39729;BME280;25402;42.004;23.088;2023-06-26T02:34:18;97054.34;;;15.27;57.32
39729;BME280;25402;42.004;23.088;2023-06-26T02:36:45;97059.22;;;15.25;57.56
39729;BME280;25402;42.004;23.088;2023-06-26T02:39:12;97062.19;;;15.24;57.51
39729;BME280;25402;42.004;23.088;2023-06-26T02:41:39;97064.53;;;15.20;57.23
39729;BME280;25402;42.004;23.088;2023-06-26T02:44:06;97083.59;;;15.20;57.12
39729;BME280;25402;42.004;23.088;2023-06-26T02:46:33;97075.41;;;15.20;57.28
39729;BME280;25402;42.004;23.088;2023-06-26T02:49:00;97072.03;;;15.25;57.01
39729;BME280;25402;42.004;23.088;2023-06-26T02:51:28;97071.31;;;15.29;56.98
39729;BME280;25402;42.004;23.088;2023-06-26T02:53:55;97068.59;;;15.29;57.08
39729;BME280;25402;42.004;23.088;2023-06-26T02:56:22;97073.97;;;15.36;57.42
39729;BME280;25402;42.004;23.088;2023-06-26T02:58:49;97071.47;;;15.35;57.13
39729;BME280;25402;42.004;23.088;2023-06-26T03:01:16;97069.22;;;15.32;57.27
39729;BME280;25402;42.004;23.088;2023-06-26T03:03:45;97070.50;;;15.29;57.28
39729;BME280;25402;42.004;23.088;2023-06-26T03:06:12;97081.31;;;15.36;56.67
39729;BME280;25402;42.004;23.088;2023-06-26T03:08:42;97073.53;;;15.39;56.79
39729;BME280;25402;42.004;23.088;2023-06-26T03:11:10;97045.22;;;15.22;56.61
39729;BME280;25402;42.004;23.088;2023-06-26T03:13:37;97068.59;;;15.48;56.32
39729;BME280;25402;42.004;23.088;2023-06-26T03:16:04;97058.97;;;15.45;56.56
39729;BME280;25402;42.004;23.088;2023-06-26T03:18:31;97083.25;;;15.65;56.79
39729;BME280;25402;42.004;23.088;2023-06-26T03:20:58;97067.56;;;15.60;56.67
39729;BME280;25402;42.004;23.088;2023-06-26T03:23:28;97090.06;;;15.74;56.76
39729;BME280;25402;42.004;23.088;2023-06-26T03:25:56;97069.63;;;15.65;56.93
39729;BME280;25402;42.004;23.088;2023-06-26T03:28:23;97064.94;;;15.72;56.78
39729;BME280;25402;42.004;23.088;2023-06-26T03:30:50;97085.66;;;15.91;56.70
39729;BME280;25402;42.004;23.088;2023-06-26T03:33:17;97081.63;;;15.94;56.65
39729;BME280;25402;42.004;23.088;2023-06-26T03:35:44;97089.44;;;15.90;56.69
39729;BME280;25402;42.004;23.088;2023-06-26T03:38:11;97097.47;;;16.04;56.76
39729;BME280;25402;42.004;23.088;2023-06-26T03:40:42;97093.13;;;16.26;56.66
39729;BME280;25402;42.004;23.088;2023-06-26T03:43:10;97089.00;;;16.35;55.63
39729;BME280;25402;42.004;23.088;2023-06-26T03:45:37;97092.00;;;16.45;55.45
39729;BME280;25402;42.004;23.088;2023-06-26T03:48:04;97092.00;;;16.45;54.99
39729;BME280;25402;42.004;23.088;2023-06-26T03:50:35;97083.63;;;16.28;55.24
39729;BME280;25402;42.004;23.088;2023-06-26T03:53:02;97092.44;;;16.42;55.18
39729;BME280;25402;42.004;23.088;2023-06-26T03:55:29;97095.50;;;16.64;54.60
39729;BME280;25402;42.004;23.088;2023-06-26T03:57:56;97084.59;;;16.99;54.33
39729;BME280;25402;42.004;23.088;2023-06-26T04:00:25;97094.06;;;17.43;53.47
39729;BME280;25402;42.004;23.088;2023-06-26T04:02:52;97079.59;;;17.71;52.75
39729;BME280;25402;42.004;23.088;2023-06-26T04:05:20;97078.72;;;18.11;50.94
39729;BME280;25402;42.004;23.088;2023-06-26T04:07:50;97092.72;;;18.71;49.50
39729;BME280;25402;42.004;23.088;2023-06-26T04:10:17;97096.09;;;19.12;48.50
39729;BME280;25402;42.004;23.088;2023-06-26T04:12:46;97100.00;;;19.76;47.35
39729;BME280;25402;42.004;23.088;2023-06-26T04:15:13;97106.13;;;20.32;46.35
39729;BME280;25402;42.004;23.088;2023-06-26T04:17:42;97105.75;;;20.77;45.80
39729;BME280;25402;42.004;23.088;2023-06-26T04:20:09;97085.06;;;21.01;45.25
39729;BME280;25402;42.004;23.088;2023-06-26T04:22:36;97103.84;;;21.52;43.98
39729;BME280;25402;42.004;23.088;2023-06-26T04:25:04;97101.28;;;21.97;42.83
39729;BME280;25402;42.004;23.088;2023-06-26T04:27:31;97101.97;;;22.35;42.10
39729;BME280;25402;42.004;23.088;2023-06-26T04:29:58;97109.72;;;22.83;41.37
39729;BME280;25402;42.004;23.088;2023-06-26T04:32:25;97111.38;;;23.40;39.91
39729;BME280;25402;42.004;23.088;2023-06-26T04:34:53;97098.03;;;23.68;38.91
39729;BME280;25402;42.004;23.088;2023-06-26T04:37:20;97105.31;;;24.23;37.84
39729;BME280;25402;42.004;23.088;2023-06-26T04:39:47;97091.00;;;24.55;37.75
39729;BME280;25402;42.004;23.088;2023-06-26T04:42:14;97112.28;;;24.93;36.83
39729;BME280;25402;42.004;23.088;2023-06-26T04:44:41;97113.41;;;25.21;36.22
39729;BME280;25402;42.004;23.088;2023-06-26T04:47:08;97115.34;;;25.21;36.21
39729;BME280;25402;42.004;23.088;2023-06-26T04:49:36;97103.78;;;24.85;35.82
39729;BME280;25402;42.004;23.088;2023-06-26T04:52:12;97094.88;;;24.54;36.61
39729;BME280;25402;42.004;23.088;2023-06-26T04:54:40;97093.88;;;24.35;37.08
39729;BME280;25402;42.004;23.088;2023-06-26T04:57:09;97113.38;;;23.99;37.72
39729;BME280;25402;42.004;23.088;2023-06-26T04:59:37;97111.25;;;23.86;38.50
39729;BME280;25402;42.004;23.088;2023-06-26T05:02:05;97107.47;;;23.46;38.89
39729;BME280;25402;42.004;23.088;2023-06-26T05:04:32;97109.97;;;23.38;39.20
39729;BME280;25402;42.004;23.088;2023-06-26T05:06:59;97114.13;;;23.30;38.99
39729;BME280;25402;42.004;23.088;2023-06-26T05:09:28;97117.75;;;23.26;39.24
39729;BME280;25402;42.004;23.088;2023-06-26T05:11:57;97111.94;;;23.12;39.63
39729;BME280;25402;42.004;23.088;2023-06-26T05:14:24;97115.78;;;23.01;39.74
39729;BME280;25402;42.004;23.088;2023-06-26T05:16:52;97108.34;;;23.06;39.78
39729;BME280;25402;42.004;23.088;2023-06-26T05:19:20;97118.84;;;23.09;39.58
39729;BME280;25402;42.004;23.088;2023-06-26T05:21:48;97095.66;;;23.05;39.15
39729;BME280;25402;42.004;23.088;2023-06-26T05:24:16;97103.09;;;23.05;37.39
39729;BME280;25402;42.004;23.088;2023-06-26T05:26:45;97082.72;;;22.96;37.33
39729;BME280;25402;42.004;23.088;2023-06-26T05:29:13;97096.50;;;23.06;36.87
39729;BME280;25402;42.004;23.088;2023-06-26T05:31:41;97115.78;;;23.36;36.36
39729;BME280;25402;42.004;23.088;2023-06-26T05:34:12;97073.50;;;23.46;36.07
39729;BME280;25402;42.004;23.088;2023-06-26T05:36:41;97105.13;;;23.94;36.01
39729;BME280;25402;42.004;23.088;2023-06-26T05:39:09;97102.25;;;24.14;34.61
39729;BME280;25402;42.004;23.088;2023-06-26T05:41:36;97094.59;;;24.06;34.49
39729;BME280;25402;42.004;23.088;2023-06-26T05:44:05;97099.47;;;24.24;33.83
39729;BME280;25402;42.004;23.088;2023-06-26T05:46:32;97089.63;;;23.98;34.68
39729;BME280;25402;42.004;23.088;2023-06-26T05:48:59;97083.47;;;24.60;34.33
39729;BME280;25402;42.004;23.088;2023-06-26T05:51:27;97076.56;;;24.97;33.58
39729;BME280;25402;42.004;23.088;2023-06-26T05:53:54;97087.97;;;25.48;32.70
39729;BME280;25402;42.004;23.088;2023-06-26T05:56:22;97098.97;;;25.24;32.19
39729;BME280;25402;42.004;23.088;2023-06-26T05:58:49;97084.22;;;25.05;32.82
39729;BME280;25402;42.004;23.088;2023-06-26T06:01:18;97097.28;;;25.00;32.83
39729;BME280;25402;42.004;23.088;2023-06-26T06:03:46;97091.09;;;24.79;32.71
39729;BME280;25402;42.004;23.088;2023-06-26T06:06:13;97093.69;;;24.60;33.39
39729;BME280;25402;42.004;23.088;2023-06-26T06:08:41;97094.91;;;24.44;33.55
39729;BME280;25402;42.004;23.088;2023-06-26T06:11:08;97095.25;;;24.81;33.11
39729;BME280;25402;42.004;23.088;2023-06-26T06:13:35;97113.81;;;24.76;32.20
39729;BME280;25402;42.004;23.088;2023-06-26T06:16:03;97104.72;;;24.70;32.73
39729;BME280;25402;42.004;23.088;2023-06-26T06:18:31;97106.94;;;24.68;32.59
39729;BME280;25402;42.004;23.088;2023-06-26T06:20:58;97106.25;;;24.86;32.44
39729;BME280;25402;42.004;23.088;2023-06-26T06:23:25;97094.31;;;25.20;32.00
39729;BME280;25402;42.004;23.088;2023-06-26T06:25:52;97096.50;;;25.28;32.16
39729;BME280;25402;42.004;23.088;2023-06-26T06:28:19;97100.91;;;25.29;31.48
39729;BME280;25402;42.004;23.088;2023-06-26T06:30:46;97106.91;;;25.07;31.85
39729;BME280;25402;42.004;23.088;2023-06-26T06:33:13;97104.31;;;24.48;32.55
39729;BME280;25402;42.004;23.088;2023-06-26T06:35:42;97098.78;;;24.48;32.59
39729;BME280;25402;42.004;23.088;2023-06-26T06:38:10;97089.25;;;24.64;32.06
39729;BME280;25402;42.004;23.088;2023-06-26T06:40:37;97105.97;;;24.44;32.37
39729;BME280;25402;42.004;23.088;2023-06-26T06:43:04;97091.19;;;24.19;32.96
39729;BME280;25402;42.004;23.088;2023-06-26T06:45:31;97078.69;;;23.78;33.39
39729;BME280;25402;42.004;23.088;2023-06-26T06:47:58;97079.81;;;23.62;33.91
39729;BME280;25402;42.004;23.088;2023-06-26T06:50:26;97094.75;;;23.61;33.87
39729;BME280;25402;42.004;23.088;2023-06-26T06:52:57;97090.34;;;23.54;34.05
39729;BME280;25402;42.004;23.088;2023-06-26T06:55:24;97070.38;;;23.88;33.79
39729;BME280;25402;42.004;23.088;2023-06-26T06:57:51;97085.75;;;23.99;33.49
39729;BME280;25402;42.004;23.088;2023-06-26T07:00:19;97096.88;;;23.84;33.60
39729;BME280;25402;42.004;23.088;2023-06-26T07:02:46;97084.75;;;23.80;33.92
39729;BME280;25402;42.004;23.088;2023-06-26T07:05:13;97085.56;;;24.40;33.72
39729;BME280;25402;42.004;23.088;2023-06-26T07:07:40;97086.16;;;24.32;33.05
39729;BME280;25402;42.004;23.088;2023-06-26T07:10:12;97087.00;;;24.71;32.78
39729;BME280;25402;42.004;23.088;2023-06-26T07:12:41;97072.16;;;24.57;32.60
39729;BME280;25402;42.004;23.088;2023-06-26T07:15:10;97055.72;;;24.37;32.60
39729;BME280;25402;42.004;23.088;2023-06-26T07:17:39;97111.47;;;24.49;32.63
39729;BME280;25402;42.004;23.088;2023-06-26T07:20:06;97079.75;;;23.87;33.25
39729;BME280;25402;42.004;23.088;2023-06-26T07:22:34;97074.06;;;24.17;33.34
39729;BME280;25402;42.004;23.088;2023-06-26T07:25:01;97060.41;;;23.92;33.38
39729;BME280;25402;42.004;23.088;2023-06-26T07:27:30;97080.09;;;23.70;34.21
39729;BME280;25402;42.004;23.088;2023-06-26T07:29:59;97057.72;;;23.77;34.42
39729;BME280;25402;42.004;23.088;2023-06-26T07:32:25;97083.00;;;23.94;33.98
39729;BME280;25402;42.004;23.088;2023-06-26T07:34:52;97056.28;;;23.89;34.36
39729;BME280;25402;42.004;23.088;2023-06-26T07:37:22;97072.31;;;23.82;33.87
39729;BME280;25402;42.004;23.088;2023-06-26T07:39:49;97066.53;;;23.69;34.21
39729;BME280;25402;42.004;23.088;2023-06-26T07:42:16;97057.28;;;23.39;33.98
39729;BME280;25402;42.004;23.088;2023-06-26T07:44:45;97061.81;;;23.79;33.26
39729;BME280;25402;42.004;23.088;2023-06-26T07:47:12;97068.81;;;23.56;33.72
39729;BME280;25402;42.004;23.088;2023-06-26T07:49:40;97051.66;;;23.70;34.16
39729;BME280;25402;42.004;23.088;2023-06-26T07:52:07;97042.25;;;23.66;33.34
39729;BME280;25402;42.004;23.088;2023-06-26T07:54:35;97058.28;;;23.74;33.85
39729;BME280;25402;42.004;23.088;2023-06-26T07:57:04;97045.69;;;23.32;33.73
39729;BME280;25402;42.004;23.088;2023-06-26T07:59:33;97065.59;;;23.24;34.08
39729;BME280;25402;42.004;23.088;2023-06-26T08:02:01;97065.03;;;23.27;34.19
39729;BME280;25402;42.004;23.088;2023-06-26T08:04:29;97082.06;;;23.60;32.69
39729;BME280;25402;42.004;23.088;2023-06-26T08:06:58;97091.00;;;22.96;33.22
39729;BME280;25402;42.004;23.088;2023-06-26T08:09:27;97059.28;;;22.93;33.56
39729;BME280;25402;42.004;23.088;2023-06-26T08:11:55;97066.94;;;23.42;33.24
39729;BME280;25402;42.004;23.088;2023-06-26T08:14:23;97077.72;;;23.23;33.02
39729;BME280;25402;42.004;23.088;2023-06-26T08:16:50;97064.50;;;23.25;32.89
39729;BME280;25402;42.004;23.088;2023-06-26T08:19:18;97046.28;;;23.29;33.25
39729;BME280;25402;42.004;23.088;2023-06-26T08:21:46;97054.50;;;23.44;32.76
39729;BME280;25402;42.004;23.088;2023-06-26T08:24:13;97057.78;;;23.46;32.92
39729;BME280;25402;42.004;23.088;2023-06-26T08:26:42;97063.06;;;23.33;33.32
39729;BME280;25402;42.004;23.088;2023-06-26T08:29:09;97034.69;;;23.07;32.79
39729;BME280;25402;42.004;23.088;2023-06-26T08:31:41;97052.94;;;22.82;32.99
39729;BME280;25402;42.004;23.088;2023-06-26T08:34:08;97070.28;;;22.83;33.44
39729;BME280;25402;42.004;23.088;2023-06-26T08:36:37;97060.91;;;22.84;34.13
39729;BME280;25402;42.004;23.088;2023-06-26T08:39:07;97044.38;;;22.84;34.59
39729;BME280;25402;42.004;23.088;2023-06-26T08:41:34;97077.47;;;22.84;34.28
39729;BME280;25402;42.004;23.088;2023-06-26T08:44:02;97046.84;;;23.01;33.95
39729;BME280;25402;42.004;23.088;2023-06-26T08:46:30;97048.75;;;23.15;34.33
39729;BME280;25402;42.004;23.088;2023-06-26T08:49:01;97034.03;;;23.55;33.73
39729;BME280;25402;42.004;23.088;2023-06-26T08:51:30;97058.38;;;23.38;33.91
39729;BME280;25402;42.004;23.088;2023-06-26T08:54:02;97049.00;;;23.39;33.72
39729;BME280;25402;42.004;23.088;2023-06-26T08:56:32;97042.97;;;23.22;34.38
39729;BME280;25402;42.004;23.088;2023-06-26T08:59:04;97046.78;;;23.36;34.07
39729;BME280;25402;42.004;23.088;2023-06-26T09:01:31;97042.56;;;23.59;33.85
39729;BME280;25402;42.004;23.088;2023-06-26T09:03:58;97038.72;;;23.55;33.94
39729;BME280;25402;42.004;23.088;2023-06-26T09:06:25;97033.84;;;23.27;33.99
39729;BME280;25402;42.004;23.088;2023-06-26T09:08:53;97048.13;;;23.49;33.61
39729;BME280;25402;42.004;23.088;2023-06-26T09:11:21;97051.25;;;23.07;33.86
39729;BME280;25402;42.004;23.088;2023-06-26T09:13:48;97045.19;;;23.10;34.54
39729;BME280;25402;42.004;23.088;2023-06-26T09:16:18;97037.47;;;22.97;34.86
39729;BME280;25402;42.004;23.088;2023-06-26T09:18:52;97050.72;;;22.95;35.09
39729;BME280;25402;42.004;23.088;2023-06-26T09:21:19;97030.59;;;22.59;34.71
39729;BME280;25402;42.004;23.088;2023-06-26T09:23:47;97040.25;;;22.76;33.05
39729;BME280;25402;42.004;23.088;2023-06-26T09:26:14;97051.00;;;22.47;32.92
39729;BME280;25402;42.004;23.088;2023-06-26T09:28:43;97043.53;;;22.83;33.26
39729;BME280;25402;42.004;23.088;2023-06-26T09:31:13;97035.88;;;22.65;33.81
39729;BME280;25402;42.004;23.088;2023-06-26T09:33:40;97049.34;;;22.97;34.36
39729;BME280;25402;42.004;23.088;2023-06-26T09:36:19;97060.34;;;23.12;34.32
39729;BME280;25402;42.004;23.088;2023-06-26T09:38:46;97045.72;;;23.22;34.57
39729;BME280;25402;42.004;23.088;2023-06-26T09:41:15;97057.03;;;23.05;34.88
39729;BME280;25402;42.004;23.088;2023-06-26T09:43:47;97044.06;;;23.21;34.90
39729;BME280;25402;42.004;23.088;2023-06-26T09:46:16;97039.06;;;23.43;34.48
39729;BME280;25402;42.004;23.088;2023-06-26T09:48:43;97056.44;;;23.34;34.72
39729;BME280;25402;42.004;23.088;2023-06-26T09:51:13;97022.44;;;23.48;34.31
39729;BME280;25402;42.004;23.088;2023-06-26T09:53:41;97048.38;;;23.52;33.82
39729;BME280;25402;42.004;23.088;2023-06-26T09:56:15;97038.69;;;23.70;33.93
39729;BME280;25402;42.004;23.088;2023-06-26T09:58:44;97044.34;;;23.94;33.10
39729;BME280;25402;42.004;23.088;2023-06-26T10:01:15;97037.41;;;23.37;33.99
39729;BME280;25402;42.004;23.088;2023-06-26T10:03:43;97056.22;;;23.25;34.85
39729;BME280;25402;42.004;23.088;2023-06-26T10:06:11;97040.22;;;23.17;34.24
39729;BME280;25402;42.004;23.088;2023-06-26T10:08:39;97049.59;;;23.21;34.20
39729;BME280;25402;42.004;23.088;2023-06-26T10:11:08;97039.09;;;23.08;34.16
39729;BME280;25402;42.004;23.088;2023-06-26T10:13:41;97033.59;;;23.18;34.12
39729;BME280;25402;42.004;23.088;2023-06-26T10:16:12;97034.00;;;23.61;33.46
39729;BME280;25402;42.004;23.088;2023-06-26T10:18:40;97010.22;;;23.65;33.60
39729;BME280;25402;42.004;23.088;2023-06-26T10:21:09;97019.56;;;23.84;33.29
39729;BME280;25402;42.004;23.088;2023-06-26T10:23:39;97034.28;;;24.18;33.23
39729;BME280;25402;42.004;23.088;2023-06-26T10:26:08;97020.13;;;24.25;32.93
39729;BME280;25402;42.004;23.088;2023-06-26T10:28:40;97026.66;;;24.73;32.57
39729;BME280;25402;42.004;23.088;2023-06-26T10:31:09;97015.94;;;24.67;30.63
39729;BME280;25402;42.004;23.088;2023-06-26T10:33:39;97011.41;;;25.10;30.74
39729;BME280;25402;42.004;23.088;2023-06-26T10:36:17;97001.38;;;25.85;29.64
39729;BME280;25402;42.004;23.088;2023-06-26T10:38:52;97003.91;;;25.82;29.35
39729;BME280;25402;42.004;23.088;2023-06-26T10:41:23;97002.00;;;26.01;28.91
39729;BME280;25402;42.004;23.088;2023-06-26T10:44:06;97004.06;;;26.47;28.31
39729;BME280;25402;42.004;23.088;2023-06-26T10:46:34;96990.47;;;26.96;28.36
39729;BME280;25402;42.004;23.088;2023-06-26T10:49:17;96999.13;;;26.76;27.78
39729;BME280;25402;42.004;23.088;2023-06-26T10:51:47;97000.06;;;26.72;26.21
39729;BME280;25402;42.004;23.088;2023-06-26T10:54:16;96985.66;;;26.18;26.38
39729;BME280;25402;42.004;23.088;2023-06-26T10:56:44;96990.25;;;26.09;26.68
39729;BME280;25402;42.004;23.088;2023-06-26T10:59:14;96978.91;;;26.24;27.25
39729;BME280;25402;42.004;23.088;2023-06-26T11:01:42;96984.59;;;25.77;27.55
39729;BME280;25402;42.004;23.088;2023-06-26T11:04:09;96973.97;;;25.84;26.92
39729;BME280;25402;42.004;23.088;2023-06-26T11:06:39;96984.84;;;25.80;27.10
39729;BME280;25402;42.004;23.088;2023-06-26T11:09:10;96967.72;;;25.54;27.28
39729;BME280;25402;42.004;23.088;2023-06-26T11:11:58;96977.81;;;25.45;27.33
39729;BME280;25402;42.004;23.088;2023-06-26T11:14:30;96979.19;;;25.19;28.07
39729;BME280;25402;42.004;23.088;2023-06-26T11:16:58;96959.16;;;25.32;28.39
39729;BME280;25402;42.004;23.088;2023-06-26T11:19:26;96973.63;;;25.48;28.65
39729;BME280;25402;42.004;23.088;2023-06-26T11:22:05;96961.09;;;25.32;29.15
39729;BME280;25402;42.004;23.088;2023-06-26T11:24:32;96986.16;;;25.40;28.46
39729;BME280;25402;42.004;23.088;2023-06-26T11:27:01;96966.16;;;25.48;28.50
39729;BME280;25402;42.004;23.088;2023-06-26T11:29:31;96975.16;;;25.35;28.71
39729;BME280;25402;42.004;23.088;2023-06-26T11:32:00;96976.06;;;25.31;29.27
39729;BME280;25402;42.004;23.088;2023-06-26T11:34:32;96950.34;;;25.49;29.05
39729;BME280;25402;42.004;23.088;2023-06-26T11:36:59;96967.25;;;25.66;29.05
39729;BME280;25402;42.004;23.088;2023-06-26T11:39:29;96961.41;;;26.10;28.24
39729;BME280;25402;42.004;23.088;2023-06-26T11:41:57;96986.53;;;25.76;27.45
39729;BME280;25402;42.004;23.088;2023-06-26T11:44:29;96966.13;;;25.91;26.96
39729;BME280;25402;42.004;23.088;2023-06-26T11:46:56;96955.41;;;26.03;26.99
39729;BME280;25402;42.004;23.088;2023-06-26T11:49:23;96950.88;;;26.45;26.93
39729;BME280;25402;42.004;23.088;2023-06-26T11:51:52;96996.84;;;26.32;27.43
39729;BME280;25402;42.004;23.088;2023-06-26T11:54:25;96959.06;;;25.98;27.52
39729;BME280;25402;42.004;23.088;2023-06-26T11:56:55;96968.19;;;26.18;28.33
39729;BME280;25402;42.004;23.088;2023-06-26T11:59:23;96974.63;;;26.13;27.88
39729;BME280;25402;42.004;23.088;2023-06-26T12:01:51;96979.88;;;26.52;28.10
39729;BME280;25402;42.004;23.088;2023-06-26T12:04:20;96975.75;;;26.50;28.69
39729;BME280;25402;42.004;23.088;2023-06-26T12:06:51;96979.66;;;26.30;28.12
39729;BME280;25402;42.004;23.088;2023-06-26T12:09:23;96947.91;;;26.22;27.48
39729;BME280;25402;42.004;23.088;2023-06-26T12:11:55;96986.91;;;26.45;27.63
39729;BME280;25402;42.004;23.088;2023-06-26T12:14:23;96964.16;;;26.29;27.72
39729;BME280;25402;42.004;23.088;2023-06-26T12:16:53;96970.16;;;25.98;27.54
39729;BME280;25402;42.004;23.088;2023-06-26T12:19:24;96954.38;;;25.80;27.96
39729;BME280;25402;42.004;23.088;2023-06-26T12:21:51;96968.06;;;25.90;27.92
39729;BME280;25402;42.004;23.088;2023-06-26T12:24:19;96956.03;;;25.81;28.10
39729;BME280;25402;42.004;23.088;2023-06-26T12:26:50;96954.81;;;26.06;28.25
39729;BME280;25402;42.004;23.088;2023-06-26T12:29:20;96947.50;;;25.54;27.93
39729;BME280;25402;42.004;23.088;2023-06-26T12:31:52;96953.47;;;25.42;27.83
39729;BME280;25402;42.004;23.088;2023-06-26T12:34:20;96942.69;;;25.41;27.60
39729;BME280;25402;42.004;23.088;2023-06-26T12:36:48;96945.91;;;25.24;28.28
39729;BME280;25402;42.004;23.088;2023-06-26T12:39:17;96953.41;;;25.47;28.30
39729;BME280;25402;42.004;23.088;2023-06-26T12:41:46;96949.16;;;25.74;28.11
39729;BME280;25402;42.004;23.088;2023-06-26T12:44:21;96939.81;;;25.70;28.10
39729;BME280;25402;42.004;23.088;2023-06-26T12:46:50;96962.25;;;25.68;27.90
39729;BME280;25402;42.004;23.088;2023-06-26T12:49:19;96937.63;;;25.24;28.01
39729;BME280;25402;42.004;23.088;2023-06-26T12:51:47;96943.59;;;25.55;28.18
39729;BME280;25402;42.004;23.088;2023-06-26T12:54:14;96958.06;;;25.71;27.92
39729;BME280;25402;42.004;23.088;2023-06-26T12:56:41;96953.28;;;25.57;27.81